Time;durP1;ratioP1;P1;durP2;ratioP2;P2;SDS_P1;SDS_P2;PMS_P1;PMS_P2;Temp;Humidity;BMP_temperature;BMP_pressure;BME280_temperature;BME280_humidity;BME280_pressure;Samples;Min_cycle;Max_cycle;Signal;HPM_P1;HPM_P2
2024/04/22 00:00:15;;;;;;;5.57;3.67;;;6.80;99.90;;;;;;5348825;26;20237;-68
2024/04/22 00:02:40;;;;;;;5.30;3.72;;;6.70;99.90;;;;;;5347660;26;20230;-67
2024/04/22 00:05:10;;;;;;;9.30;3.95;;;6.70;99.90;;;;;;5411080;26;20323;-68
2024/04/22 00:07:36;;;;;;;5.13;3.85;;;6.60;99.90;;;;;;5349111;26;20747;-67
2024/04/22 00:10:02;;;;;;;5.15;3.85;;;6.60;99.90;;;;;;5349683;26;20234;-68
2024/04/22 00:12:27;;;;;;;5.60;4.00;;;6.60;99.90;;;;;;5347855;26;20297;-68
2024/04/22 00:14:53;;;;;;;4.32;3.67;;;6.60;99.90;;;;;;5404272;26;20274;-68
2024/04/22 00:17:19;;;;;;;5.25;3.67;;;6.50;99.90;;;;;;5349838;26;20241;-68
2024/04/22 00:19:44;;;;;;;8.40;3.90;;;6.50;99.90;;;;;;5347818;26;20379;-67
2024/04/22 00:22:10;;;;;;;5.80;3.60;;;6.40;99.90;;;;;;5343428;26;20261;-66
2024/04/22 00:24:36;;;;;;;6.13;4.07;;;6.40;99.90;;;;;;5351139;26;20290;-67
2024/04/22 00:27:01;;;;;;;6.50;3.78;;;6.40;99.90;;;;;;5348769;26;20364;-69
2024/04/22 00:29:27;;;;;;;9.25;3.90;;;6.30;99.90;;;;;;5348631;26;20318;-69
2024/04/22 00:31:53;;;;;;;5.75;4.10;;;6.30;99.90;;;;;;5346530;26;20335;-66
2024/04/22 00:34:18;;;;;;;6.15;3.90;;;6.20;99.90;;;;;;5348637;26;20245;-67
2024/04/22 00:36:44;;;;;;;6.43;3.70;;;6.20;99.90;;;;;;5346701;26;20245;-67
2024/04/22 00:39:10;;;;;;;6.53;3.72;;;6.20;99.90;;;;;;5347100;26;20230;-68
2024/04/22 00:41:35;;;;;;;4.90;3.55;;;6.20;99.90;;;;;;5348764;26;20288;-67
2024/04/22 00:44:01;;;;;;;5.78;3.83;;;6.10;99.90;;;;;;5345151;26;20237;-68
2024/04/22 00:46:27;;;;;;;8.27;3.65;;;6.10;99.90;;;;;;5346320;26;20285;-68
2024/04/22 00:48:54;;;;;;;5.43;3.90;;;6.10;99.90;;;;;;5344307;26;20235;-68
2024/04/22 00:51:21;;;;;;;8.25;4.25;;;6.10;99.90;;;;;;5345766;26;20327;-67
2024/04/22 00:53:47;;;;;;;4.75;3.53;;;6.10;99.90;;;;;;5346354;26;20293;-68
2024/04/22 00:56:14;;;;;;;5.13;3.70;;;6.10;99.90;;;;;;5346354;26;20269;-66
2024/04/22 00:58:40;;;;;;;6.55;3.90;;;6.00;99.90;;;;;;5352136;26;20718;-67
2024/04/22 01:01:09;;;;;;;9.00;4.10;;;6.00;99.90;;;;;;5341274;26;20242;-67
2024/04/22 01:03:35;;;;;;;6.60;4.05;;;6.00;99.90;;;;;;5346187;26;20282;-67
2024/04/22 01:06:01;;;;;;;6.57;3.90;;;6.00;99.90;;;;;;5346675;26;20241;-69
2024/04/22 01:08:27;;;;;;;6.53;3.70;;;6.00;99.90;;;;;;5398468;26;20340;-68
2024/04/22 01:10:53;;;;;;;5.90;3.65;;;6.00;99.90;;;;;;5339046;26;20624;-68
2024/04/22 01:13:19;;;;;;;6.75;3.97;;;6.00;99.90;;;;;;5349122;26;20718;-68
2024/04/22 01:15:45;;;;;;;6.85;3.78;;;6.00;99.90;;;;;;5349342;26;20784;-68
2024/04/22 01:18:17;;;;;;;5.82;3.92;;;6.00;99.90;;;;;;5339524;26;20254;-68
2024/04/22 01:20:43;;;;;;;5.22;4.00;;;6.00;99.90;;;;;;5345599;26;20719;-68
2024/04/22 01:23:08;;;;;;;7.63;4.15;;;6.00;99.90;;;;;;5340200;26;20248;-68
2024/04/22 01:25:37;;;;;;;6.28;3.97;;;5.90;99.90;;;;;;5347318;26;20229;-68
2024/04/22 01:28:04;;;;;;;5.53;3.97;;;5.90;99.90;;;;;;5376164;26;20238;-69
2024/04/22 01:30:30;;;;;;;8.82;3.70;;;5.90;99.90;;;;;;5346724;26;20241;-67
2024/04/22 01:32:56;;;;;;;10.13;4.10;;;5.90;99.90;;;;;;5347695;26;20335;-66
2024/04/22 01:35:22;;;;;;;6.65;4.03;;;5.90;99.90;;;;;;5349856;26;20233;-68
2024/04/22 01:37:47;;;;;;;9.38;4.18;;;5.90;99.90;;;;;;5345077;26;21564;-67
2024/04/22 01:40:13;;;;;;;9.25;4.22;;;5.90;99.90;;;;;;5398510;26;20234;-69
2024/04/22 01:42:39;;;;;;;7.38;4.32;;;5.80;99.90;;;;;;5347089;26;20230;-67
2024/04/22 01:45:05;;;;;;;9.13;4.28;;;5.80;99.90;;;;;;5342717;26;20238;-68
2024/04/22 01:47:31;;;;;;;6.47;4.30;;;5.80;99.90;;;;;;5401837;26;20251;-67
2024/04/22 01:49:57;;;;;;;8.05;4.10;;;5.80;99.90;;;;;;5346972;26;20280;-67
2024/04/22 01:52:22;;;;;;;7.25;4.55;;;5.70;99.90;;;;;;5345596;26;20294;-67
2024/04/22 01:54:48;;;;;;;5.63;4.03;;;5.70;99.90;;;;;;5341124;26;20242;-69
2024/04/22 01:57:14;;;;;;;8.43;4.40;;;5.70;99.90;;;;;;5360826;26;20285;-67
2024/04/22 01:59:40;;;;;;;7.43;4.30;;;5.70;99.90;;;;;;5343418;26;20273;-68
2024/04/22 02:02:05;;;;;;;8.15;4.88;;;5.60;99.90;;;;;;5397709;26;20723;-67
2024/04/22 02:04:31;;;;;;;6.22;4.40;;;5.60;99.90;;;;;;5349351;26;21121;-67
2024/04/22 02:06:57;;;;;;;7.32;4.60;;;5.60;99.90;;;;;;5345634;26;20391;-68
2024/04/22 02:09:22;;;;;;;6.18;4.78;;;5.60;99.90;;;;;;5348665;26;20235;-68
2024/04/22 02:11:50;;;;;;;8.23;4.95;;;5.60;99.90;;;;;;5342928;26;20708;-67
2024/04/22 02:14:16;;;;;;;6.90;4.80;;;5.50;99.90;;;;;;5343881;26;21164;-69
2024/04/22 02:16:42;;;;;;;5.93;4.43;;;5.50;99.90;;;;;;5340616;26;20234;-67
2024/04/22 02:19:07;;;;;;;8.40;4.75;;;5.50;99.90;;;;;;5347607;26;20235;-67
2024/04/22 02:21:33;;;;;;;11.55;4.82;;;5.50;99.90;;;;;;5339460;26;20265;-69
2024/04/22 02:23:59;;;;;;;7.65;4.60;;;5.40;99.90;;;;;;5348909;26;20668;-68
2024/04/22 02:26:24;;;;;;;6.55;5.07;;;5.40;99.90;;;;;;5345113;26;20436;-67
2024/04/22 02:28:51;;;;;;;8.07;4.70;;;5.40;99.90;;;;;;5343923;26;20241;-69
2024/04/22 02:31:18;;;;;;;5.47;4.30;;;5.40;99.90;;;;;;5344567;26;20678;-68
2024/04/22 02:33:43;;;;;;;7.88;4.82;;;5.40;99.90;;;;;;5345255;26;20360;-69
2024/04/22 02:36:09;;;;;;;6.95;4.80;;;5.30;99.90;;;;;;5337454;26;20711;-67
2024/04/22 02:38:35;;;;;;;7.30;4.70;;;5.30;99.90;;;;;;5346705;26;20610;-68
2024/04/22 02:41:00;;;;;;;7.20;4.53;;;5.30;99.90;;;;;;5340871;26;20765;-68
2024/04/22 02:43:26;;;;;;;8.82;5.13;;;5.30;99.90;;;;;;5340040;26;20264;-68
2024/04/22 02:45:52;;;;;;;8.02;5.10;;;5.30;99.90;;;;;;5348957;26;20272;-67
2024/04/22 02:48:18;;;;;;;6.95;5.28;;;5.20;99.90;;;;;;5347484;26;20281;-67
2024/04/22 02:50:43;;;;;;;7.78;4.93;;;5.20;99.90;;;;;;5337796;26;20405;-68
2024/04/22 02:53:09;;;;;;;7.60;5.00;;;5.20;99.90;;;;;;5350808;26;20295;-67
2024/04/22 02:55:35;;;;;;;12.98;4.55;;;5.20;99.90;;;;;;5344695;26;20237;-67
2024/04/22 02:58:01;;;;;;;10.02;5.05;;;5.30;99.90;;;;;;5344700;26;20475;-67
2024/04/22 03:00:26;;;;;;;6.85;5.00;;;5.30;99.90;;;;;;5345935;26;20273;-67
2024/04/22 03:02:52;;;;;;;7.97;5.10;;;5.30;99.90;;;;;;5345563;26;20313;-68
2024/04/22 03:05:18;;;;;;;9.18;5.18;;;5.40;99.90;;;;;;5370869;26;20350;-68
2024/04/22 03:07:44;;;;;;;7.13;5.15;;;5.40;99.90;;;;;;5340829;26;20230;-67
2024/04/22 03:10:10;;;;;;;6.50;4.55;;;5.40;99.90;;;;;;5345103;26;21166;-67
2024/04/22 03:12:36;;;;;;;9.32;5.30;;;5.40;99.90;;;;;;5344792;26;20231;-67
2024/04/22 03:15:02;;;;;;;8.13;5.43;;;5.40;99.90;;;;;;5340178;26;20966;-68
2024/04/22 03:17:28;;;;;;;9.80;5.53;;;5.40;99.90;;;;;;5346240;26;21349;-68
2024/04/22 03:19:54;;;;;;;8.20;5.22;;;5.40;99.90;;;;;;5346581;26;20230;-67
2024/04/22 03:22:20;;;;;;;9.48;5.60;;;5.50;99.90;;;;;;5344479;26;20227;-67
2024/04/22 03:24:46;;;;;;;8.00;5.32;;;5.60;99.90;;;;;;5341341;26;20344;-68
2024/04/22 03:27:12;;;;;;;11.27;4.88;;;5.60;99.90;;;;;;5346169;26;20702;-68
2024/04/22 03:29:37;;;;;;;8.95;4.78;;;5.70;99.90;;;;;;5338434;26;20352;-67
2024/04/22 03:32:04;;;;;;;6.97;4.60;;;5.70;99.90;;;;;;5372327;26;20333;-68
2024/04/22 03:34:30;;;;;;;10.63;5.07;;;5.70;99.90;;;;;;5353293;26;20221;-67
2024/04/22 03:36:55;;;;;;;8.40;5.32;;;5.80;99.90;;;;;;5349875;26;20704;-68
2024/04/22 03:39:21;;;;;;;8.35;5.25;;;5.90;99.90;;;;;;5347996;26;20302;-67
2024/04/22 03:41:47;;;;;;;6.93;4.60;;;5.90;99.90;;;;;;5353142;26;20238;-67
2024/04/22 03:44:12;;;;;;;8.15;4.45;;;5.90;99.90;;;;;;5349680;26;20346;-67
2024/04/22 03:52:07;;;;;;;7.07;4.72;;;5.80;99.90;;;;;;5347118;26;20738;-68
2024/04/22 03:54:32;;;;;;;7.20;4.97;;;5.80;99.90;;;;;;5346852;26;20238;-68
2024/04/22 03:56:58;;;;;;;8.57;4.82;;;5.80;99.90;;;;;;5342466;26;21079;-67
2024/04/22 03:59:24;;;;;;;8.40;4.78;;;5.80;99.90;;;;;;5345636;26;20246;-68
2024/04/22 04:01:50;;;;;;;7.88;5.00;;;5.80;99.90;;;;;;5347091;26;20279;-68
2024/04/22 04:04:15;;;;;;;8.68;4.80;;;5.80;99.90;;;;;;5349396;26;20227;-68
2024/04/22 04:06:41;;;;;;;11.13;4.75;;;5.70;99.90;;;;;;5341912;26;20269;-68
2024/04/22 04:09:07;;;;;;;7.13;4.85;;;5.70;99.90;;;;;;5348116;26;20666;-67
2024/04/22 04:11:36;;;;;;;7.50;5.03;;;5.70;99.90;;;;;;5344859;26;20296;-68
2024/04/22 04:14:08;;;;;;;8.88;5.40;;;5.80;99.90;;;;;;5403641;26;20321;-67
2024/04/22 04:16:34;;;;;;;6.32;5.20;;;5.70;99.90;;;;;;5345200;26;20554;-68
2024/04/22 04:19:00;;;;;;;7.85;5.05;;;5.70;99.90;;;;;;5345416;26;20359;-67
2024/04/22 04:21:26;;;;;;;5.78;4.60;;;5.70;99.90;;;;;;5340359;26;20346;-66
2024/04/22 04:23:52;;;;;;;11.55;5.07;;;5.70;99.90;;;;;;5343602;26;20298;-66
2024/04/22 04:26:18;;;;;;;7.13;4.78;;;5.70;99.90;;;;;;5340965;26;20231;-66
2024/04/22 04:28:49;;;;;;;9.27;4.85;;;5.70;99.90;;;;;;5342578;26;20339;-68
2024/04/22 04:31:16;;;;;;;7.30;5.20;;;5.70;99.90;;;;;;5344556;26;20226;-67
2024/04/22 04:33:42;;;;;;;8.40;5.03;;;5.80;99.90;;;;;;5345363;26;20297;-66
2024/04/22 04:36:08;;;;;;;6.35;4.70;;;5.70;99.90;;;;;;5344966;26;20241;-67
2024/04/22 04:38:35;;;;;;;7.35;5.40;;;5.70;99.90;;;;;;5346189;26;20242;-68
2024/04/22 04:41:02;;;;;;;7.72;4.82;;;5.70;99.90;;;;;;5343238;26;20370;-69
2024/04/22 04:43:28;;;;;;;7.60;5.05;;;5.70;99.90;;;;;;5348182;26;20239;-68
2024/04/22 04:45:54;;;;;;;8.70;5.10;;;5.70;99.90;;;;;;5345202;26;20802;-67
2024/04/22 04:48:21;;;;;;;8.60;5.30;;;5.70;99.90;;;;;;5341268;26;20262;-68
2024/04/22 04:50:47;;;;;;;7.53;5.28;;;5.70;99.90;;;;;;5348578;26;20253;-69
2024/04/22 04:53:13;;;;;;;11.43;5.80;;;5.70;99.90;;;;;;5348830;26;20281;-68
2024/04/22 04:55:40;;;;;;;10.38;5.53;;;5.70;99.90;;;;;;5347035;26;20247;-68
2024/04/22 04:58:09;;;;;;;8.50;5.60;;;5.70;99.90;;;;;;5352395;26;20239;-66
2024/04/22 05:00:34;;;;;;;9.50;5.50;;;5.70;99.90;;;;;;5351050;26;20280;-66
2024/04/22 05:03:00;;;;;;;7.57;5.68;;;5.70;99.90;;;;;;5352511;26;20241;-68
2024/04/22 05:05:26;;;;;;;8.55;5.45;;;5.70;99.90;;;;;;5355683;26;20344;-65
2024/04/22 05:07:52;;;;;;;9.05;5.13;;;5.70;99.90;;;;;;5351103;26;21372;-67
2024/04/22 05:10:18;;;;;;;10.45;6.70;;;5.70;99.90;;;;;;5352292;26;21358;-66
2024/04/22 05:12:45;;;;;;;11.50;5.93;;;5.70;99.90;;;;;;5351575;26;20283;-67
2024/04/22 05:15:10;;;;;;;9.88;5.70;;;5.80;99.90;;;;;;5350404;26;20340;-66
2024/04/22 05:17:36;;;;;;;13.25;6.38;;;5.80;99.90;;;;;;5352526;26;20309;-67
2024/04/22 05:20:02;;;;;;;7.95;5.60;;;5.80;99.90;;;;;;5345235;26;20237;-68
2024/04/22 05:22:28;;;;;;;8.82;5.22;;;5.90;99.90;;;;;;5342911;26;20293;-67
2024/04/22 05:24:54;;;;;;;9.45;5.45;;;5.90;99.90;;;;;;5408119;26;20294;-68
2024/04/22 05:27:20;;;;;;;10.85;5.22;;;5.90;99.90;;;;;;5351629;26;20242;-68
2024/04/22 05:29:45;;;;;;;7.88;5.50;;;6.00;99.90;;;;;;5345028;26;20292;-67
2024/04/22 05:32:11;;;;;;;9.25;5.63;;;6.00;99.90;;;;;;5349861;26;20375;-66
2024/04/22 05:37:21;;;;;;;12.13;5.63;;;6.10;99.90;;;;;;5351550;26;20229;-67
2024/04/22 05:39:47;;;;;;;11.35;5.18;;;6.20;99.90;;;;;;5343437;26;21234;-67
2024/04/22 05:42:13;;;;;;;8.65;5.35;;;6.20;99.90;;;;;;5353003;26;20237;-68
2024/04/22 05:44:39;;;;;;;14.57;6.22;;;6.20;99.90;;;;;;5347936;26;20229;-67
2024/04/22 05:47:05;;;;;;;11.90;6.07;;;6.30;99.90;;;;;;5404518;26;20718;-67
2024/04/22 05:49:30;;;;;;;13.95;6.57;;;6.30;99.90;;;;;;5347601;26;20246;-67
2024/04/22 05:51:56;;;;;;;13.45;5.30;;;6.40;99.90;;;;;;5351443;26;20574;-67
2024/04/22 05:54:22;;;;;;;8.70;5.10;;;6.50;99.90;;;;;;5345342;26;20237;-67
2024/04/22 05:56:48;;;;;;;11.52;5.20;;;6.50;99.90;;;;;;5344828;26;20316;-68
2024/04/22 05:59:14;;;;;;;7.75;4.80;;;6.60;99.90;;;;;;5350966;26;20241;-68
2024/04/22 06:01:40;;;;;;;11.43;5.47;;;6.60;99.90;;;;;;5352234;26;20237;-68
2024/04/22 06:04:06;;;;;;;10.48;4.88;;;6.70;99.90;;;;;;5355605;26;20729;-68
2024/04/22 06:06:36;;;;;;;14.60;5.05;;;6.70;99.90;;;;;;5346345;26;20251;-68
2024/04/22 06:09:12;;;;;;;10.48;5.45;;;6.80;99.90;;;;;;5350689;26;20714;-68
2024/04/22 06:11:38;;;;;;;9.35;4.97;;;6.90;99.90;;;;;;5349553;26;20246;-67
2024/04/22 06:14:04;;;;;;;8.32;4.97;;;7.00;99.90;;;;;;5346144;26;20251;-68
2024/04/22 06:16:31;;;;;;;7.05;4.57;;;7.00;99.90;;;;;;5353225;26;20288;-71
2024/04/22 06:18:57;;;;;;;10.98;4.38;;;7.10;99.90;;;;;;5346116;26;20306;-67
2024/04/22 06:21:23;;;;;;;7.97;3.97;;;7.10;99.90;;;;;;5343217;26;20242;-70
2024/04/22 06:23:50;;;;;;;7.80;4.10;;;7.20;99.90;;;;;;5345044;26;20297;-68
2024/04/22 06:26:15;;;;;;;6.32;4.30;;;7.30;99.90;;;;;;5344183;26;20988;-68
2024/04/22 06:28:41;;;;;;;6.97;4.30;;;7.30;99.90;;;;;;5342284;26;20281;-68
2024/04/22 06:31:07;;;;;;;6.47;4.20;;;7.40;99.90;;;;;;5355552;26;20650;-68
2024/04/22 06:33:36;;;;;;;6.28;4.55;;;7.50;99.90;;;;;;5350144;26;20249;-67
2024/04/22 06:36:02;;;;;;;5.30;4.10;;;7.50;99.90;;;;;;5349004;26;20239;-67
2024/04/22 06:38:30;;;;;;;5.45;3.58;;;7.60;99.90;;;;;;5346652;26;20351;-68
2024/04/22 06:40:56;;;;;;;7.30;3.92;;;7.70;99.90;;;;;;5348547;26;20711;-67
2024/04/22 06:43:22;;;;;;;7.13;4.13;;;7.70;99.90;;;;;;5351132;26;20238;-67
2024/04/22 06:45:49;;;;;;;7.72;3.50;;;7.80;99.90;;;;;;5348418;26;20293;-68
2024/04/22 06:48:15;;;;;;;8.30;3.90;;;7.80;99.90;;;;;;5348026;26;20226;-67
2024/04/22 06:50:44;;;;;;;6.78;3.53;;;7.90;99.90;;;;;;5343805;26;20277;-68
2024/04/22 06:53:10;;;;;;;5.70;4.00;;;8.00;99.90;;;;;;5349662;26;20243;-68
2024/04/22 06:55:36;;;;;;;5.82;4.00;;;8.00;99.90;;;;;;5403848;26;20335;-68
2024/04/22 06:58:02;;;;;;;6.00;3.50;;;8.20;99.90;;;;;;5352137;26;20863;-68
2024/04/22 07:00:28;;;;;;;5.85;3.50;;;8.20;99.90;;;;;;5350873;26;20733;-68
2024/04/22 07:02:55;;;;;;;4.43;3.35;;;8.30;99.90;;;;;;5406157;26;20235;-67
2024/04/22 07:05:21;;;;;;;4.35;3.20;;;8.30;99.90;;;;;;5345646;26;20230;-67
2024/04/22 07:07:47;;;;;;;5.18;3.60;;;8.40;99.90;;;;;;5348246;26;20609;-68
2024/04/22 07:10:13;;;;;;;6.47;3.47;;;8.50;99.90;;;;;;5351045;26;20309;-67
2024/04/22 07:12:41;;;;;;;6.40;3.42;;;8.50;99.90;;;;;;5349170;26;20229;-67
2024/04/22 07:15:07;;;;;;;6.60;3.63;;;8.60;99.90;;;;;;5348398;26;20281;-67
2024/04/22 07:17:33;;;;;;;6.00;3.35;;;8.60;99.90;;;;;;5356866;26;20370;-66
2024/04/22 07:19:59;;;;;;;5.45;3.35;;;8.70;99.90;;;;;;5355072;26;20730;-68
2024/04/22 07:22:28;;;;;;;8.55;2.70;;;8.80;99.90;;;;;;5345948;26;20250;-67
2024/04/22 07:24:55;;;;;;;5.47;2.88;;;8.80;99.90;;;;;;5380375;26;20237;-67
2024/04/22 07:27:21;;;;;;;5.22;2.90;;;8.80;99.90;;;;;;5352377;26;20233;-67
2024/04/22 07:29:48;;;;;;;4.88;2.47;;;8.90;99.90;;;;;;5351668;26;20856;-69
2024/04/22 07:32:14;;;;;;;5.53;2.40;;;8.90;99.90;;;;;;5350025;26;20853;-67
2024/04/22 07:34:40;;;;;;;6.45;2.00;;;9.00;99.90;;;;;;5351027;26;20660;-66
2024/04/22 07:37:06;;;;;;;3.97;2.00;;;9.10;99.90;;;;;;5350970;26;20227;-68
2024/04/22 07:39:35;;;;;;;3.47;1.95;;;9.10;99.90;;;;;;5355893;26;20238;-67
2024/04/22 07:42:01;;;;;;;5.07;2.10;;;9.10;99.90;;;;;;5355825;26;20629;-68
2024/04/22 07:44:26;;;;;;;3.65;1.77;;;9.20;99.90;;;;;;5352463;26;20246;-68
2024/04/22 07:46:53;;;;;;;3.65;2.15;;;9.30;99.90;;;;;;5351260;26;20277;-68
2024/04/22 07:49:18;;;;;;;5.55;1.90;;;9.40;99.90;;;;;;5355628;26;20234;-68
2024/04/22 07:51:44;;;;;;;2.47;1.90;;;9.50;99.90;;;;;;5354227;26;20604;-67
2024/04/22 07:54:10;;;;;;;4.15;1.70;;;9.50;99.90;;;;;;5360642;26;20245;-68
2024/04/22 07:56:36;;;;;;;7.20;2.20;;;9.60;99.90;;;;;;5350237;26;20238;-69
2024/04/22 07:59:02;;;;;;;3.10;1.77;;;9.70;99.90;;;;;;5358196;26;20237;-68
2024/04/22 08:01:28;;;;;;;4.43;1.80;;;9.80;99.90;;;;;;5350586;26;20225;-68
2024/04/22 08:03:54;;;;;;;6.45;1.73;;;9.80;99.90;;;;;;5354822;26;20222;-68
2024/04/22 08:06:22;;;;;;;3.80;1.55;;;9.80;98.80;;;;;;5352465;26;20232;-67
2024/04/22 08:08:48;;;;;;;7.38;1.88;;;9.80;98.10;;;;;;5354318;26;20283;-68
2024/04/22 08:11:13;;;;;;;1.75;1.40;;;9.80;97.80;;;;;;5352377;26;20381;-68
2024/04/22 08:13:39;;;;;;;2.22;1.50;;;9.80;95.20;;;;;;5410007;26;20238;-68
2024/04/22 08:16:05;;;;;;;2.63;1.70;;;9.80;93.90;;;;;;5361043;26;20229;-70
2024/04/22 08:18:33;;;;;;;5.70;1.73;;;9.80;94.50;;;;;;5349777;26;20226;-68
2024/04/22 08:20:59;;;;;;;2.47;1.63;;;9.80;94.50;;;;;;5409712;26;20230;-69
2024/04/22 08:23:25;;;;;;;3.63;1.63;;;9.80;93.40;;;;;;5348389;26;20358;-68
2024/04/22 08:25:52;;;;;;;3.22;1.50;;;9.90;93.20;;;;;;5359453;26;20270;-66
2024/04/22 08:28:18;;;;;;;2.65;1.60;;;9.90;92.60;;;;;;5352164;26;20371;-67
2024/04/22 08:30:43;;;;;;;2.67;2.00;;;9.90;90.40;;;;;;5354712;26;20276;-66
2024/04/22 08:33:09;;;;;;;5.72;1.92;;;9.90;90.10;;;;;;5351423;26;20234;-69
2024/04/22 08:35:46;;;;;;;4.65;1.95;;;10.00;90.80;;;;;;5350812;26;20234;-66
2024/04/22 08:38:11;;;;;;;2.03;1.30;;;10.10;90.90;;;;;;5348579;26;20286;-68
2024/04/22 08:40:42;;;;;;;6.57;1.80;;;10.20;89.90;;;;;;5338468;26;20271;-68
2024/04/22 08:43:08;;;;;;;2.75;1.60;;;10.20;85.70;;;;;;5353900;26;20238;-68
2024/04/22 08:45:34;;;;;;;4.30;1.60;;;10.20;85.80;;;;;;5349971;26;20809;-67
2024/04/22 08:48:02;;;;;;;3.58;1.50;;;10.10;84.00;;;;;;5351607;26;20280;-66
2024/04/22 08:50:28;;;;;;;5.38;1.63;;;10.00;86.00;;;;;;5355421;26;20291;-69
2024/04/22 08:52:55;;;;;;;2.83;1.52;;;9.90;86.80;;;;;;5347066;26;20905;-68
2024/04/22 08:55:21;;;;;;;3.70;1.60;;;9.90;88.00;;;;;;5351604;26;20269;-67
2024/04/22 08:57:47;;;;;;;4.95;1.80;;;9.80;87.60;;;;;;5406901;26;20305;-68
2024/04/22 09:00:13;;;;;;;3.25;1.70;;;9.70;85.50;;;;;;5353631;26;20961;-67
2024/04/22 09:02:39;;;;;;;1.60;1.30;;;9.70;84.70;;;;;;5357089;26;20234;-68
2024/04/22 09:05:05;;;;;;;2.05;1.58;;;9.70;85.80;;;;;;5407000;26;20293;-68
2024/04/22 09:07:30;;;;;;;2.42;1.90;;;9.70;86.70;;;;;;5411937;26;21153;-68
2024/04/22 09:09:58;;;;;;;3.67;1.50;;;9.70;88.20;;;;;;5345635;26;20234;-68
2024/04/22 09:12:24;;;;;;;6.13;1.95;;;9.60;90.00;;;;;;5349048;26;20238;-68
2024/04/22 09:15:00;;;;;;;8.10;1.70;;;9.60;90.40;;;;;;5356566;26;20260;-67
2024/04/22 09:17:26;;;;;;;3.15;1.90;;;9.60;90.30;;;;;;5352446;26;20233;-69
2024/04/22 09:19:51;;;;;;;3.55;1.80;;;9.60;90.50;;;;;;5350917;26;20333;-68
2024/04/22 09:22:17;;;;;;;3.65;1.75;;;9.70;90.80;;;;;;5351223;26;20265;-67
2024/04/22 09:24:44;;;;;;;3.10;1.80;;;9.80;90.70;;;;;;5408602;26;20694;-68
2024/04/22 09:27:10;;;;;;;5.22;1.70;;;9.90;90.60;;;;;;5350714;26;20698;-68
2024/04/22 09:29:42;;;;;;;5.90;1.70;;;10.10;90.50;;;;;;5353515;26;20257;-66
2024/04/22 09:32:12;;;;;;;3.17;1.65;;;10.10;82.30;;;;;;5354791;26;20284;-67
2024/04/22 09:34:40;;;;;;;5.68;1.70;;;10.20;82.90;;;;;;5344692;26;20266;-68
2024/04/22 09:37:09;;;;;;;3.67;1.85;;;10.20;81.60;;;;;;5349788;26;20272;-68
2024/04/22 09:39:40;;;;;;;3.17;1.58;;;10.30;79.90;;;;;;5348700;26;20685;-68
2024/04/22 09:42:08;;;;;;;4.13;1.70;;;10.30;79.70;;;;;;5354432;26;20246;-66
2024/04/22 09:44:35;;;;;;;5.72;1.60;;;10.40;82.10;;;;;;5349613;26;20235;-68
2024/04/22 09:47:02;;;;;;;2.67;1.85;;;10.30;81.80;;;;;;5355456;26;20230;-67
2024/04/22 09:49:29;;;;;;;3.83;1.60;;;10.30;81.90;;;;;;5353636;26;20602;-67
2024/04/22 09:51:57;;;;;;;2.60;2.00;;;10.30;83.50;;;;;;5353220;26;20238;-67
2024/04/22 09:54:22;;;;;;;4.95;2.15;;;10.40;82.10;;;;;;5353566;26;20226;-68
2024/04/22 09:56:51;;;;;;;6.07;1.80;;;10.50;81.40;;;;;;5353837;26;20766;-69
2024/04/22 09:59:17;;;;;;;5.03;1.85;;;10.60;80.80;;;;;;5352423;26;20245;-67
2024/04/22 10:01:43;;;;;;;7.20;2.22;;;10.70;79.20;;;;;;5346077;26;20424;-68
2024/04/22 10:04:12;;;;;;;4.18;1.70;;;10.70;77.10;;;;;;5351395;26;20714;-68
2024/04/22 10:06:37;;;;;;;2.72;1.67;;;10.70;75.40;;;;;;5351844;26;20807;-68
2024/04/22 10:09:03;;;;;;;2.42;1.67;;;10.70;74.80;;;;;;5375191;26;20239;-67
2024/04/22 10:11:30;;;;;;;2.17;1.60;;;10.70;75.70;;;;;;5348676;26;20895;-68
2024/04/22 10:14:10;;;;;;;4.18;1.65;;;10.70;75.50;;;;;;5350233;26;20241;-68
2024/04/22 10:16:36;;;;;;;1.95;1.30;;;10.70;74.10;;;;;;5352908;26;20282;-67
2024/04/22 10:19:02;;;;;;;3.97;1.80;;;10.80;76.60;;;;;;5406286;26;20294;-67
2024/04/22 10:21:27;;;;;;;3.25;1.67;;;10.70;76.20;;;;;;5346744;26;20265;-68
2024/04/22 10:23:54;;;;;;;3.20;1.80;;;10.60;76.00;;;;;;5347058;26;20241;-68
2024/04/22 10:26:20;;;;;;;2.90;1.80;;;10.60;77.40;;;;;;5346722;26;20226;-68
2024/04/22 10:28:47;;;;;;;4.93;1.75;;;10.60;77.00;;;;;;5347285;26;20260;-69
2024/04/22 10:31:20;;;;;;;3.58;1.55;;;10.60;79.00;;;;;;5346511;26;20230;-69
2024/04/22 10:33:46;;;;;;;3.25;1.65;;;10.70;80.20;;;;;;5350283;26;20235;-69
2024/04/22 10:36:12;;;;;;;6.45;2.10;;;10.80;81.00;;;;;;5345249;26;20233;-68
2024/04/22 10:38:38;;;;;;;5.93;1.67;;;10.80;80.70;;;;;;5347365;26;20684;-68
2024/04/22 10:41:04;;;;;;;2.83;1.55;;;10.70;79.70;;;;;;5342551;26;20233;-69
2024/04/22 10:43:30;;;;;;;2.25;1.50;;;10.70;77.30;;;;;;5346232;26;21129;-68
2024/04/22 10:45:57;;;;;;;2.58;1.95;;;10.70;76.00;;;;;;5346866;26;21568;-69
2024/04/22 10:48:24;;;;;;;3.47;1.65;;;10.80;76.20;;;;;;5341358;26;20238;-67
2024/04/22 10:50:50;;;;;;;3.45;1.70;;;10.90;75.30;;;;;;5347925;26;20234;-68
2024/04/22 10:53:15;;;;;;;2.55;1.52;;;10.90;74.00;;;;;;5349673;26;20234;-69
2024/04/22 10:55:42;;;;;;;5.32;1.67;;;10.90;73.60;;;;;;5350678;26;20281;-67
2024/04/22 10:58:07;;;;;;;4.03;1.55;;;10.80;71.70;;;;;;5347138;26;20245;-69
2024/04/22 11:00:33;;;;;;;3.88;1.80;;;10.60;68.00;;;;;;5345875;26;20281;-69
2024/04/22 11:02:59;;;;;;;4.10;1.63;;;10.30;69.70;;;;;;5347105;26;20234;-68
2024/04/22 11:05:26;;;;;;;3.38;1.90;;;10.30;71.60;;;;;;5348914;26;20302;-67
2024/04/22 11:07:53;;;;;;;4.28;1.60;;;10.30;71.90;;;;;;5349533;26;20706;-67
2024/04/22 11:10:20;;;;;;;2.55;1.42;;;10.40;71.80;;;;;;5353052;26;20270;-68
2024/04/22 11:12:47;;;;;;;3.75;1.50;;;10.30;71.60;;;;;;5349578;26;20360;-70
2024/04/22 11:15:15;;;;;;;2.30;1.60;;;10.10;71.90;;;;;;5344237;26;20264;-72
2024/04/22 11:17:41;;;;;;;3.38;1.90;;;10.00;72.30;;;;;;5347815;26;20234;-67
2024/04/22 11:20:08;;;;;;;4.18;1.83;;;10.00;74.70;;;;;;5349666;26;20268;-72
2024/04/22 11:22:37;;;;;;;3.30;2.05;;;10.10;76.60;;;;;;5345169;26;20337;-69
2024/04/22 11:25:04;;;;;;;2.60;1.77;;;10.10;72.90;;;;;;5347721;26;20242;-71
2024/04/22 11:27:33;;;;;;;3.63;1.88;;;10.00;71.10;;;;;;5343580;26;20238;-67
2024/04/22 11:30:00;;;;;;;4.15;1.80;;;10.00;72.20;;;;;;5404451;26;20363;-73
2024/04/22 11:32:27;;;;;;;2.50;1.77;;;10.00;72.50;;;;;;5405816;26;20242;-68
2024/04/22 11:34:54;;;;;;;2.80;1.40;;;10.00;74.10;;;;;;5403197;26;20284;-68
2024/04/22 11:37:20;;;;;;;2.53;1.52;;;10.00;70.50;;;;;;5350918;26;20237;-67
2024/04/22 11:39:50;;;;;;;1.80;1.50;;;9.90;68.50;;;;;;5366564;26;20726;-70
2024/04/22 11:42:19;;;;;;;2.50;1.45;;;10.00;68.00;;;;;;5350839;26;20326;-68
2024/04/22 11:44:45;;;;;;;5.32;1.63;;;10.00;69.00;;;;;;5375498;26;20800;-68
2024/04/22 11:47:11;;;;;;;4.35;1.80;;;9.90;63.50;;;;;;5342149;26;20641;-66
2024/04/22 11:49:36;;;;;;;2.95;1.65;;;9.90;62.00;;;;;;5340049;26;20238;-67
2024/04/22 11:52:03;;;;;;;2.95;1.45;;;10.00;64.90;;;;;;5344906;26;20234;-68
2024/04/22 11:54:28;;;;;;;2.40;1.73;;;10.00;66.10;;;;;;5347675;26;20652;-68
2024/04/22 11:56:54;;;;;;;6.03;1.77;;;10.00;67.20;;;;;;5350020;26;20342;-68
2024/04/22 11:59:20;;;;;;;2.15;1.83;;;9.90;68.20;;;;;;5350492;26;20352;-69
2024/04/22 12:01:46;;;;;;;2.80;1.90;;;9.90;69.20;;;;;;5350439;26;20350;-66
2024/04/22 12:04:11;;;;;;;3.90;1.65;;;9.90;70.20;;;;;;5349273;26;20230;-67
2024/04/22 12:06:37;;;;;;;3.78;1.88;;;9.90;70.50;;;;;;5348090;26;20620;-67
2024/04/22 12:09:03;;;;;;;3.67;1.65;;;9.90;68.60;;;;;;5354278;26;20286;-69
2024/04/22 12:11:29;;;;;;;2.58;1.58;;;9.80;67.80;;;;;;5351808;26;20336;-68
2024/04/22 12:13:54;;;;;;;2.50;1.60;;;9.80;66.60;;;;;;5351657;26;20766;-67
2024/04/22 12:16:20;;;;;;;2.28;1.40;;;9.80;67.10;;;;;;5351102;26;20233;-69
2024/04/22 12:18:46;;;;;;;2.83;1.77;;;9.70;68.10;;;;;;5346975;26;20234;-68
2024/04/22 12:21:11;;;;;;;3.30;1.80;;;9.70;68.20;;;;;;5348245;26;20626;-67
2024/04/22 12:23:38;;;;;;;6.63;1.83;;;9.70;67.60;;;;;;5349400;26;20281;-70
2024/04/22 12:26:06;;;;;;;4.80;1.85;;;9.80;69.20;;;;;;5382240;26;20230;-67
2024/04/22 12:28:31;;;;;;;3.15;1.70;;;9.80;69.00;;;;;;5348279;26;20238;-67
2024/04/22 12:30:57;;;;;;;3.00;1.58;;;9.90;66.80;;;;;;5409268;26;20272;-67
2024/04/22 12:33:23;;;;;;;3.08;1.77;;;10.00;65.00;;;;;;5349756;26;20284;-68
2024/04/22 12:35:49;;;;;;;4.18;1.70;;;10.00;64.20;;;;;;5350145;26;20779;-68
2024/04/22 12:38:15;;;;;;;3.55;1.63;;;9.90;61.90;;;;;;5346502;26;20226;-67
2024/04/22 12:40:40;;;;;;;4.45;1.70;;;9.80;60.60;;;;;;5347936;26;20238;-68
2024/04/22 12:43:08;;;;;;;4.40;1.55;;;9.80;61.10;;;;;;5354638;26;20250;-68
2024/04/22 12:45:35;;;;;;;3.25;1.80;;;9.90;61.70;;;;;;5401804;26;20235;-68
2024/04/22 12:50:48;;;;;;;6.25;1.70;;;9.90;58.80;;;;;;5352378;26;20238;-68
2024/04/22 12:53:16;;;;;;;2.35;1.73;;;9.90;60.70;;;;;;5348430;26;20343;-67
2024/04/22 12:55:42;;;;;;;3.90;1.42;;;10.00;60.20;;;;;;5351383;26;20275;-69
2024/04/22 12:58:08;;;;;;;2.38;1.50;;;10.00;59.80;;;;;;5353514;26;20341;-67